Time;durP1;ratioP1;P1;durP2;ratioP2;P2;SDS_P1;SDS_P2;PMS_P1;PMS_P2;Temp;Humidity;BMP_temperature;BMP_pressure;BME280_temperature;BME280_humidity;BME280_pressure;Samples;Min_cycle;Max_cycle;Signal;HPM_P1;HPM_P2
2023/03/11 00:00:15;;;;;;;2.08;1.23;;;3.70;82.20;;;;;;5011867;28;20050;-79
2023/03/11 00:02:42;;;;;;;2.17;1.10;;;3.70;83.00;;;;;;5002422;28;20098;-80
2023/03/11 00:05:08;;;;;;;1.05;0.82;;;3.60;82.10;;;;;;5000255;28;20038;-81
2023/03/11 00:07:33;;;;;;;1.50;0.95;;;3.60;82.10;;;;;;5014771;28;20629;-79
2023/03/11 00:09:59;;;;;;;1.25;1.10;;;3.60;82.20;;;;;;5000448;28;20500;-79
2023/03/11 00:12:24;;;;;;;0.75;0.70;;;3.60;82.20;;;;;;5018128;28;20475;-80
2023/03/11 00:14:50;;;;;;;1.85;1.05;;;3.60;82.20;;;;;;4981395;28;20038;-81
2023/03/11 00:17:15;;;;;;;0.88;0.88;;;3.60;82.10;;;;;;5013782;28;20044;-79
2023/03/11 00:19:41;;;;;;;0.90;0.80;;;3.60;82.00;;;;;;5017303;28;20120;-79
2023/03/11 00:22:06;;;;;;;0.80;0.77;;;3.50;82.10;;;;;;5021854;28;20042;-80
2023/03/11 00:24:33;;;;;;;1.20;1.10;;;3.50;82.10;;;;;;5023246;28;20040;-79
2023/03/11 00:26:58;;;;;;;0.85;0.80;;;3.50;82.10;;;;;;5001012;28;20104;-81
2023/03/11 00:29:24;;;;;;;1.08;0.80;;;3.50;82.10;;;;;;5019365;28;20064;-80
2023/03/11 00:31:49;;;;;;;2.45;1.40;;;3.50;82.10;;;;;;5006870;28;20038;-78
2023/03/11 00:34:15;;;;;;;0.70;0.60;;;3.50;82.10;;;;;;4990781;28;20038;-79
2023/03/11 00:36:40;;;;;;;0.50;0.50;;;3.50;82.20;;;;;;5027777;28;20040;-78
2023/03/11 00:39:06;;;;;;;1.45;0.80;;;3.50;82.10;;;;;;5033025;28;20107;-81
2023/03/11 00:41:32;;;;;;;1.00;0.90;;;3.50;82.10;;;;;;5023140;28;20034;-80
2023/03/11 00:43:58;;;;;;;0.95;0.90;;;3.50;82.00;;;;;;5016979;28;20037;-80
2023/03/11 00:46:24;;;;;;;0.80;0.70;;;3.50;82.00;;;;;;5048647;28;20460;-80
2023/03/11 00:48:50;;;;;;;1.00;0.90;;;3.40;81.90;;;;;;5029242;28;20049;-77
2023/03/11 00:51:15;;;;;;;0.60;0.60;;;3.40;81.90;;;;;;5047266;28;20040;-81
2023/03/11 00:53:41;;;;;;;1.35;0.70;;;3.40;82.00;;;;;;5030570;28;20578;-80
2023/03/11 00:56:11;;;;;;;0.55;0.55;;;3.40;81.90;;;;;;5015731;28;20040;-81
2023/03/11 00:58:37;;;;;;;0.80;0.80;;;3.40;82.00;;;;;;5011113;28;20044;-81
2023/03/11 01:01:13;;;;;;;1.13;0.57;;;3.40;82.00;;;;;;5028369;28;20045;-81
2023/03/11 01:03:39;;;;;;;0.80;0.68;;;3.40;82.00;;;;;;4993601;28;20033;-82
2023/03/11 01:06:05;;;;;;;0.70;0.70;;;3.40;82.00;;;;;;5011627;28;20033;-80
2023/03/11 01:08:31;;;;;;;0.60;0.60;;;3.40;82.00;;;;;;5011277;28;20060;-80
2023/03/11 01:10:56;;;;;;;0.68;0.60;;;3.40;82.00;;;;;;5042583;28;20779;-79
2023/03/11 01:13:22;;;;;;;0.60;0.50;;;3.40;82.10;;;;;;5035034;28;20059;-81
2023/03/11 01:15:48;;;;;;;0.50;0.50;;;3.40;82.10;;;;;;5015854;28;20036;-81
2023/03/11 01:18:14;;;;;;;1.10;0.85;;;3.40;82.10;;;;;;5052617;28;20036;-81
2023/03/11 01:20:39;;;;;;;0.55;0.50;;;3.30;82.00;;;;;;5029318;28;20775;-80
2023/03/11 01:23:05;;;;;;;3.17;0.90;;;3.30;82.00;;;;;;5061639;28;20076;-80
2023/03/11 01:25:31;;;;;;;0.45;0.45;;;3.30;82.00;;;;;;5004019;28;20052;-81
2023/03/11 01:27:57;;;;;;;1.35;0.70;;;3.30;81.90;;;;;;5055441;28;20510;-80
2023/03/11 01:30:23;;;;;;;0.77;0.65;;;3.30;81.90;;;;;;5045741;28;20271;-80
2023/03/11 01:32:49;;;;;;;0.70;0.60;;;3.30;82.00;;;;;;5044314;28;20032;-79
2023/03/11 01:35:16;;;;;;;1.85;0.68;;;3.30;82.00;;;;;;5043829;28;20115;-80
2023/03/11 01:37:42;;;;;;;1.15;0.43;;;3.20;81.80;;;;;;5020091;28;20037;-81
2023/03/11 01:40:10;;;;;;;0.77;0.50;;;3.20;81.90;;;;;;5023168;28;20049;-80
2023/03/11 01:42:35;;;;;;;0.63;0.63;;;3.20;81.90;;;;;;5007252;28;20044;-80
2023/03/11 01:45:01;;;;;;;2.60;0.40;;;3.20;81.90;;;;;;5055762;28;20298;-79
2023/03/11 01:47:37;;;;;;;0.95;0.80;;;3.20;81.90;;;;;;5014025;28;20033;-81
2023/03/11 01:50:05;;;;;;;0.60;0.60;;;3.20;81.80;;;;;;5024179;28;20037;-81
2023/03/11 01:52:31;;;;;;;0.60;0.60;;;3.20;81.90;;;;;;5015933;28;20033;-81
2023/03/11 01:54:56;;;;;;;0.60;0.60;;;3.20;81.90;;;;;;5046716;28;20039;-81
2023/03/11 01:57:22;;;;;;;0.90;0.70;;;3.20;81.90;;;;;;5035265;28;20085;-80
2023/03/11 01:59:52;;;;;;;0.43;0.43;;;3.20;82.00;;;;;;5033406;28;20063;-81
2023/03/11 02:02:41;;;;;;;0.75;0.60;;;3.20;82.00;;;;;;4995012;28;20041;-79
2023/03/11 02:05:07;;;;;;;2.17;0.68;;;3.10;81.90;;;;;;5013443;28;20103;-79
2023/03/11 02:07:32;;;;;;;1.50;0.60;;;3.10;81.90;;;;;;5006093;28;20063;-80
2023/03/11 02:09:58;;;;;;;0.60;0.60;;;3.10;82.00;;;;;;5014436;28;20047;-80
2023/03/11 02:12:23;;;;;;;1.42;0.60;;;3.10;82.00;;;;;;5034504;28;20041;-79
2023/03/11 02:14:50;;;;;;;1.20;0.60;;;3.10;82.10;;;;;;5004952;28;20032;-79
2023/03/11 02:17:16;;;;;;;1.08;0.60;;;3.10;82.00;;;;;;5023887;28;20044;-80
2023/03/11 02:19:54;;;;;;;2.15;0.50;;;3.00;82.00;;;;;;5030297;28;20040;-80
2023/03/11 02:22:20;;;;;;;0.80;0.65;;;3.00;82.10;;;;;;5040679;28;20040;-80
2023/03/11 02:25:08;;;;;;;0.60;0.60;;;3.00;82.10;;;;;;5027435;28;20041;-80
2023/03/11 02:27:34;;;;;;;0.60;0.60;;;3.00;82.10;;;;;;5037877;28;20097;-79
2023/03/11 02:30:00;;;;;;;1.77;0.60;;;3.00;82.20;;;;;;5022699;28;20043;-80
2023/03/11 02:32:25;;;;;;;0.68;0.65;;;3.00;82.20;;;;;;5021785;28;20036;-80
2023/03/11 02:34:51;;;;;;;1.77;0.57;;;3.00;82.30;;;;;;5026271;28;20092;-78
2023/03/11 02:37:17;;;;;;;1.90;0.93;;;3.00;82.20;;;;;;5029060;28;20032;-82
2023/03/11 02:39:44;;;;;;;0.63;0.63;;;3.00;82.20;;;;;;5033042;28;20057;-78
2023/03/11 02:42:18;;;;;;;0.80;0.65;;;3.00;82.20;;;;;;4999714;28;20045;-81
2023/03/11 02:44:44;;;;;;;0.60;0.60;;;3.00;82.10;;;;;;5030719;28;20033;-81
2023/03/11 02:47:10;;;;;;;1.52;0.60;;;2.90;82.10;;;;;;5027420;28;20033;-80
2023/03/11 02:49:35;;;;;;;2.13;0.77;;;2.90;82.10;;;;;;5012412;28;20049;-80
2023/03/11 02:52:01;;;;;;;1.23;0.65;;;2.90;82.00;;;;;;5020300;28;20036;-80
2023/03/11 02:54:26;;;;;;;0.65;0.50;;;2.90;82.00;;;;;;4996177;28;20049;-78
2023/03/11 02:56:52;;;;;;;1.30;0.88;;;2.90;82.10;;;;;;5026181;28;20484;-80
2023/03/11 02:59:17;;;;;;;0.80;0.68;;;2.90;82.20;;;;;;5049451;28;20040;-80
2023/03/11 03:01:43;;;;;;;1.70;0.70;;;2.90;82.20;;;;;;5033321;28;20642;-80
2023/03/11 03:04:08;;;;;;;1.05;0.70;;;2.80;82.10;;;;;;5039234;28;20037;-80
2023/03/11 03:06:34;;;;;;;1.10;0.68;;;2.80;83.00;;;;;;5011395;28;20037;-81
2023/03/11 03:08:59;;;;;;;2.15;0.70;;;2.80;82.30;;;;;;5010939;28;20044;-80
2023/03/11 03:11:25;;;;;;;1.88;0.70;;;2.80;82.30;;;;;;5034005;28;20036;-80
2023/03/11 03:13:50;;;;;;;2.45;0.73;;;2.80;82.20;;;;;;4990614;28;20036;-81
2023/03/11 03:16:16;;;;;;;0.60;0.60;;;2.80;82.80;;;;;;4991601;28;20090;-81
2023/03/11 03:18:42;;;;;;;2.25;0.73;;;2.90;82.40;;;;;;5032729;28;20418;-79
2023/03/11 03:21:07;;;;;;;0.60;0.60;;;2.80;82.30;;;;;;5009236;28;20037;-80
2023/03/11 03:23:34;;;;;;;1.15;0.70;;;2.80;82.30;;;;;;5039420;28;20148;-78
2023/03/11 03:26:00;;;;;;;5.72;0.93;;;2.80;82.30;;;;;;5050055;28;20037;-79
2023/03/11 03:28:26;;;;;;;0.55;0.55;;;2.80;82.20;;;;;;5026462;28;20028;-80
2023/03/11 03:30:52;;;;;;;1.30;0.90;;;2.80;82.30;;;;;;5040261;28;20029;-79
2023/03/11 03:33:17;;;;;;;2.13;0.65;;;2.80;82.30;;;;;;5029112;28;20052;-80
2023/03/11 03:35:43;;;;;;;1.08;0.63;;;2.80;83.00;;;;;;5040562;28;20116;-79
2023/03/11 03:38:09;;;;;;;0.50;0.45;;;2.80;82.30;;;;;;5034937;28;20105;-80
2023/03/11 03:40:34;;;;;;;1.08;0.70;;;2.80;82.20;;;;;;5021867;28;20036;-78
2023/03/11 03:43:00;;;;;;;3.25;0.70;;;2.80;82.30;;;;;;5045704;28;20037;-80
2023/03/11 03:45:26;;;;;;;0.70;0.70;;;2.80;82.30;;;;;;5014528;28;20048;-80
2023/03/11 03:47:51;;;;;;;0.77;0.70;;;2.80;82.30;;;;;;5039997;28;20051;-80
2023/03/11 03:50:17;;;;;;;0.50;0.50;;;2.80;82.30;;;;;;5043948;28;20046;-79
2023/03/11 03:52:42;;;;;;;1.08;0.75;;;2.80;82.50;;;;;;5023922;28;20464;-79
2023/03/11 03:55:08;;;;;;;2.47;0.63;;;2.80;82.30;;;;;;5041096;28;22983;-80
2023/03/11 03:57:34;;;;;;;0.95;0.85;;;2.80;82.30;;;;;;5040022;28;20033;-79
2023/03/11 03:59:59;;;;;;;3.03;0.80;;;2.80;82.30;;;;;;5025392;28;20432;-80
2023/03/11 04:02:25;;;;;;;1.63;0.82;;;2.70;82.20;;;;;;5045593;28;20025;-80
2023/03/11 04:04:50;;;;;;;0.75;0.60;;;2.70;82.10;;;;;;5053876;28;20029;-80
2023/03/11 04:07:16;;;;;;;2.28;0.75;;;2.70;82.10;;;;;;5043976;28;20036;-79
2023/03/11 04:09:41;;;;;;;1.60;0.80;;;2.70;82.10;;;;;;5027515;28;20028;-79
2023/03/11 04:12:09;;;;;;;2.85;0.88;;;2.70;82.10;;;;;;4996593;28;20033;-80
2023/03/11 04:14:34;;;;;;;1.23;0.90;;;2.70;82.10;;;;;;4993144;28;20029;-78
2023/03/11 04:17:00;;;;;;;1.83;0.90;;;2.70;82.10;;;;;;5005246;28;20725;-79
2023/03/11 04:19:25;;;;;;;0.93;0.73;;;2.60;82.20;;;;;;5036528;28;20024;-79
2023/03/11 04:21:51;;;;;;;1.85;0.82;;;2.60;82.10;;;;;;5016970;28;20041;-80
2023/03/11 04:24:17;;;;;;;0.85;0.73;;;2.60;82.10;;;;;;5001898;28;20091;-79
2023/03/11 04:26:43;;;;;;;0.73;0.70;;;2.60;82.10;;;;;;5025530;28;20036;-78
2023/03/11 04:29:09;;;;;;;0.82;0.77;;;2.60;82.10;;;;;;5046152;28;20136;-80
2023/03/11 04:31:34;;;;;;;2.15;0.70;;;2.60;82.20;;;;;;5045937;28;20045;-79
2023/03/11 04:34:00;;;;;;;0.80;0.80;;;2.60;82.20;;;;;;5044353;28;20106;-80
2023/03/11 04:36:25;;;;;;;1.48;0.88;;;2.60;82.20;;;;;;5028354;28;20049;-77
2023/03/11 04:38:51;;;;;;;4.97;0.88;;;2.60;82.30;;;;;;5017015;28;20084;-80
2023/03/11 04:41:16;;;;;;;2.08;1.10;;;2.60;82.30;;;;;;5024634;28;22495;-79
2023/03/11 04:43:42;;;;;;;0.60;0.60;;;2.60;82.30;;;;;;5033254;28;20041;-79
2023/03/11 04:46:07;;;;;;;1.48;0.90;;;2.50;82.30;;;;;;5043186;28;20044;-80
2023/03/11 04:48:33;;;;;;;1.40;1.23;;;2.50;82.30;;;;;;5005025;28;20052;-80
2023/03/11 04:50:58;;;;;;;1.15;0.90;;;2.50;82.30;;;;;;5008606;28;20526;-77
2023/03/11 04:53:24;;;;;;;1.33;0.70;;;2.50;82.30;;;;;;5024849;28;20773;-80
2023/03/11 04:55:52;;;;;;;3.05;0.73;;;2.50;82.40;;;;;;5019872;28;20044;-79
2023/03/11 04:58:18;;;;;;;1.33;0.95;;;2.50;83.30;;;;;;5021544;28;20044;-81
2023/03/11 05:00:44;;;;;;;1.67;0.70;;;2.50;82.50;;;;;;5018380;28;20099;-80
2023/03/11 05:03:09;;;;;;;1.60;0.90;;;2.50;82.50;;;;;;5022354;28;20078;-80
2023/03/11 05:05:35;;;;;;;2.75;0.90;;;2.50;82.60;;;;;;5022485;28;20128;-78
2023/03/11 05:08:00;;;;;;;1.48;0.90;;;2.50;82.60;;;;;;5022770;28;20029;-78
2023/03/11 05:10:26;;;;;;;2.45;0.60;;;2.40;82.50;;;;;;5000916;28;20109;-80
2023/03/11 05:12:51;;;;;;;2.85;1.20;;;2.40;82.60;;;;;;5028041;28;20420;-80
2023/03/11 05:15:17;;;;;;;1.73;0.90;;;2.40;82.60;;;;;;5021338;28;20034;-81
2023/03/11 05:17:43;;;;;;;2.72;1.10;;;2.40;82.70;;;;;;5020952;28;20136;-81
2023/03/11 05:20:09;;;;;;;3.13;1.10;;;2.40;82.70;;;;;;5021210;28;20395;-79
2023/03/11 05:22:35;;;;;;;2.10;1.20;;;2.40;82.70;;;;;;5017323;28;20457;-79
2023/03/11 05:25:01;;;;;;;3.45;1.63;;;2.40;82.70;;;;;;4980494;28;20061;-78
2023/03/11 05:27:26;;;;;;;3.58;1.00;;;2.40;82.70;;;;;;4993239;28;20030;-79
2023/03/11 05:29:52;;;;;;;1.95;0.90;;;2.40;82.80;;;;;;5032838;28;20500;-78
2023/03/11 05:32:18;;;;;;;5.05;1.10;;;2.40;82.70;;;;;;4983140;28;20034;-80
2023/03/11 05:34:44;;;;;;;0.93;0.82;;;2.40;82.80;;;;;;5004673;28;20060;-81
2023/03/11 05:37:09;;;;;;;1.50;0.90;;;2.40;82.80;;;;;;5026294;28;20439;-81
2023/03/11 05:39:36;;;;;;;2.63;1.27;;;2.40;82.80;;;;;;4991063;28;20029;-78
2023/03/11 05:42:02;;;;;;;3.08;1.20;;;2.40;82.80;;;;;;5038802;28;20047;-79
2023/03/11 05:44:28;;;;;;;3.00;1.00;;;2.40;82.90;;;;;;5040899;28;20067;-81
2023/03/11 05:46:53;;;;;;;0.80;0.77;;;2.40;82.90;;;;;;5054101;28;20033;-78
2023/03/11 05:49:20;;;;;;;2.10;1.05;;;2.40;82.90;;;;;;5041698;28;20036;-80
2023/03/11 05:51:46;;;;;;;2.63;0.82;;;2.40;82.90;;;;;;5040591;28;20031;-80
2023/03/11 05:54:13;;;;;;;0.98;0.88;;;2.40;82.90;;;;;;5040660;28;20188;-80
2023/03/11 05:56:40;;;;;;;1.63;1.02;;;2.40;83.00;;;;;;5039914;28;20033;-80
2023/03/11 05:59:06;;;;;;;1.33;0.88;;;2.30;83.00;;;;;;5031826;28;20033;-78
2023/03/11 06:01:31;;;;;;;3.47;0.90;;;2.30;83.00;;;;;;5028423;28;20036;-81
2023/03/11 06:03:57;;;;;;;1.55;0.95;;;2.30;82.90;;;;;;5030906;28;20048;-79
2023/03/11 06:06:22;;;;;;;1.63;0.80;;;2.30;83.00;;;;;;4999930;28;20446;-80
2023/03/11 06:08:49;;;;;;;4.13;1.00;;;2.30;82.70;;;;;;5007644;28;20040;-81
2023/03/11 06:11:14;;;;;;;2.15;1.00;;;2.30;83.10;;;;;;5023011;28;20049;-80
2023/03/11 06:13:40;;;;;;;2.78;1.73;;;2.30;83.20;;;;;;5010372;28;20112;-79
2023/03/11 06:16:06;;;;;;;3.67;0.77;;;2.30;83.20;;;;;;5050452;28;20101;-81
2023/03/11 06:18:31;;;;;;;1.92;1.13;;;2.30;83.30;;;;;;5008940;28;20742;-79
2023/03/11 06:20:57;;;;;;;1.85;1.30;;;2.30;83.40;;;;;;5038280;28;20037;-80
2023/03/11 06:23:23;;;;;;;2.10;1.00;;;2.30;83.40;;;;;;5022545;28;20042;-81
2023/03/11 06:25:58;;;;;;;2.15;1.38;;;2.30;83.40;;;;;;5038236;28;20319;-79
2023/03/11 06:28:24;;;;;;;1.33;1.13;;;2.30;83.50;;;;;;4999782;28;20087;-80
2023/03/11 06:30:49;;;;;;;4.70;1.20;;;2.30;83.40;;;;;;5015446;28;20045;-81
2023/03/11 06:33:15;;;;;;;1.17;1.02;;;2.30;83.50;;;;;;5036967;28;20042;-80
2023/03/11 06:35:40;;;;;;;5.65;1.83;;;2.30;83.50;;;;;;5020127;28;20049;-80
2023/03/11 06:38:06;;;;;;;2.45;1.25;;;2.30;83.60;;;;;;4997568;28;20026;-79
2023/03/11 06:40:32;;;;;;;4.15;1.85;;;2.30;83.60;;;;;;5015997;28;20033;-77
2023/03/11 06:42:59;;;;;;;2.80;1.80;;;2.30;83.60;;;;;;5002214;28;20134;-79
2023/03/11 06:45:24;;;;;;;1.73;1.52;;;2.30;83.60;;;;;;4993897;28;20096;-79
2023/03/11 06:47:50;;;;;;;1.40;1.30;;;2.30;83.70;;;;;;5009163;28;20417;-79
2023/03/11 06:50:16;;;;;;;2.80;1.50;;;2.30;83.70;;;;;;4979426;28;20571;-79
2023/03/11 06:52:41;;;;;;;3.38;2.00;;;2.30;83.70;;;;;;4993857;28;20159;-80
2023/03/11 06:55:07;;;;;;;2.17;1.33;;;2.30;83.70;;;;;;5005481;28;20617;-80
2023/03/11 06:57:33;;;;;;;5.97;2.00;;;2.40;83.80;;;;;;5019837;28;20042;-80
2023/03/11 06:59:58;;;;;;;4.15;1.50;;;2.40;83.80;;;;;;5003209;28;20044;-79
2023/03/11 07:02:24;;;;;;;2.50;1.77;;;2.40;83.80;;;;;;5005459;28;20100;-80
2023/03/11 07:04:49;;;;;;;12.90;5.57;;;2.40;83.80;;;;;;5007049;28;20046;-78
2023/03/11 07:07:15;;;;;;;9.10;4.03;;;2.40;83.80;;;;;;5022129;28;20037;-79
2023/03/11 07:09:40;;;;;;;12.00;4.22;;;2.50;83.80;;;;;;5018281;28;20068;-79
2023/03/11 07:12:06;;;;;;;10.23;4.13;;;2.50;83.80;;;;;;5013951;28;20029;-79
2023/03/11 07:14:31;;;;;;;6.20;3.63;;;2.50;83.70;;;;;;5013676;28;20042;-79
2023/03/11 07:16:57;;;;;;;4.07;2.35;;;2.50;83.70;;;;;;5005362;28;20101;-78
2023/03/11 07:19:23;;;;;;;2.67;2.13;;;2.60;83.90;;;;;;5018537;28;20124;-78
2023/03/11 07:21:48;;;;;;;5.30;2.17;;;2.70;84.00;;;;;;4976957;28;20128;-78
2023/03/11 07:24:14;;;;;;;2.30;2.00;;;2.80;84.00;;;;;;5014560;28;20038;-80
2023/03/11 07:26:39;;;;;;;5.20;2.20;;;2.90;84.00;;;;;;5017675;28;20037;-79
2023/03/11 07:29:05;;;;;;;3.45;2.30;;;3.00;84.00;;;;;;4995353;28;20042;-79
2023/03/11 07:31:32;;;;;;;2.15;1.50;;;3.10;83.90;;;;;;5012998;28;20041;-78
2023/03/11 07:33:58;;;;;;;2.40;1.50;;;3.20;83.80;;;;;;4999984;28;20060;-79
2023/03/11 07:39:59;;;;;;;2.22;1.48;;;3.30;83.40;;;;;;5011286;28;20718;-80
2023/03/11 07:42:25;;;;;;;2.50;1.42;;;3.50;83.40;;;;;;5018867;28;20570;-81
2023/03/11 07:44:50;;;;;;;2.88;1.55;;;3.60;83.30;;;;;;5035358;28;20046;-80
2023/03/11 07:47:16;;;;;;;1.60;1.20;;;3.70;83.30;;;;;;5045263;28;20033;-79
2023/03/11 07:49:41;;;;;;;6.25;1.50;;;3.80;83.30;;;;;;5007066;28;20503;-80
2023/03/11 07:52:07;;;;;;;3.17;1.17;;;3.90;83.10;;;;;;5004632;28;20760;-78
2023/03/11 07:54:33;;;;;;;2.70;1.30;;;4.00;83.10;;;;;;5033090;28;20113;-79
2023/03/11 07:56:58;;;;;;;2.35;1.23;;;4.20;83.10;;;;;;5022112;28;20068;-80
2023/03/11 07:59:25;;;;;;;1.02;0.90;;;4.30;82.90;;;;;;5040909;28;20036;-81
2023/03/11 08:01:50;;;;;;;2.33;1.15;;;4.40;82.80;;;;;;5034520;28;20041;-78
2023/03/11 08:04:16;;;;;;;3.88;1.50;;;4.50;82.70;;;;;;5018305;28;20041;-79
2023/03/11 08:06:43;;;;;;;2.05;1.13;;;4.60;82.40;;;;;;5035524;28;20037;-78
2023/03/11 08:09:08;;;;;;;2.50;1.17;;;4.70;82.10;;;;;;5012093;28;20044;-79
2023/03/11 08:11:34;;;;;;;6.32;2.97;;;4.70;82.00;;;;;;5023815;28;20122;-78
2023/03/11 08:14:00;;;;;;;2.88;1.60;;;4.80;81.60;;;;;;5010873;28;20037;-79
2023/03/11 08:16:25;;;;;;;1.60;1.25;;;4.80;81.40;;;;;;4986256;28;20041;-80
2023/03/11 08:18:56;;;;;;;1.25;1.08;;;4.80;81.30;;;;;;4999423;28;20038;-80
2023/03/11 08:21:23;;;;;;;1.88;1.17;;;4.90;81.20;;;;;;4992216;28;20040;-78
2023/03/11 08:23:49;;;;;;;1.50;0.95;;;4.90;81.20;;;;;;5008788;28;20091;-78
2023/03/11 08:26:16;;;;;;;5.18;1.90;;;5.00;81.00;;;;;;5006904;28;20036;-80
2023/03/11 08:28:42;;;;;;;3.35;1.13;;;5.00;80.60;;;;;;5034547;28;20037;-78
2023/03/11 08:31:14;;;;;;;1.88;1.10;;;5.10;80.60;;;;;;5020943;28;20102;-79
2023/03/11 08:33:40;;;;;;;1.85;1.00;;;5.10;80.00;;;;;;5023102;28;20041;-77
2023/03/11 08:36:06;;;;;;;1.40;1.20;;;5.20;80.00;;;;;;5021568;28;20092;-78
2023/03/11 08:38:32;;;;;;;5.00;2.50;;;5.20;79.90;;;;;;5044998;28;20061;-79
2023/03/11 08:40:57;;;;;;;6.05;2.13;;;5.30;80.00;;;;;;5018320;28;20076;-78
2023/03/11 08:43:23;;;;;;;1.55;1.13;;;5.40;79.70;;;;;;5056470;28;20056;-79
2023/03/11 08:45:49;;;;;;;4.00;1.33;;;5.40;79.30;;;;;;5008453;28;20302;-78
2023/03/11 08:48:14;;;;;;;1.67;1.10;;;5.40;79.00;;;;;;5038758;28;20561;-80
2023/03/11 08:50:40;;;;;;;1.85;1.38;;;5.50;79.10;;;;;;5043467;28;20442;-80
2023/03/11 08:53:07;;;;;;;4.15;1.33;;;5.40;78.70;;;;;;5012520;28;20049;-80
2023/03/11 08:55:33;;;;;;;2.67;1.30;;;5.40;78.40;;;;;;5017568;28;20033;-78
2023/03/11 08:57:58;;;;;;;2.58;1.80;;;5.40;78.40;;;;;;5034479;28;20044;-79
2023/03/11 09:00:24;;;;;;;2.72;1.27;;;5.50;78.50;;;;;;5030444;28;20037;-78
2023/03/11 09:02:49;;;;;;;1.95;1.30;;;5.50;78.30;;;;;;5020725;28;20041;-78
2023/03/11 09:05:15;;;;;;;2.03;1.55;;;5.60;78.20;;;;;;5024190;28;20038;-79
2023/03/11 09:07:40;;;;;;;8.40;1.90;;;5.60;78.00;;;;;;5009390;28;20037;-78
2023/03/11 09:10:06;;;;;;;3.28;1.25;;;5.70;77.90;;;;;;5020494;28;20144;-78
2023/03/11 09:12:32;;;;;;;4.07;1.40;;;5.60;77.50;;;;;;5002472;28;20030;-79
2023/03/11 09:14:57;;;;;;;3.40;1.20;;;5.60;77.10;;;;;;4988449;28;20121;-78
2023/03/11 09:17:23;;;;;;;3.15;1.00;;;5.60;77.10;;;;;;5006508;28;20049;-79
2023/03/11 09:19:48;;;;;;;2.05;1.25;;;5.60;76.90;;;;;;4988337;28;20033;-78
2023/03/11 09:22:14;;;;;;;4.05;1.40;;;5.60;77.00;;;;;;5006229;28;20041;-79
2023/03/11 09:24:39;;;;;;;2.78;1.60;;;5.50;77.00;;;;;;5024145;28;20451;-79
2023/03/11 09:27:05;;;;;;;5.13;1.65;;;5.50;77.00;;;;;;5004080;28;20520;-81
2023/03/11 09:29:30;;;;;;;5.35;1.35;;;5.50;77.00;;;;;;5005991;28;20045;-79
2023/03/11 09:31:56;;;;;;;6.35;1.40;;;5.50;77.00;;;;;;5000737;28;20061;-79
2023/03/11 09:34:22;;;;;;;2.28;1.40;;;5.50;77.10;;;;;;4985602;28;20038;-79
2023/03/11 09:36:47;;;;;;;5.80;1.92;;;5.50;77.20;;;;;;5019918;28;20843;-80
2023/03/11 09:39:13;;;;;;;9.38;4.00;;;5.60;77.20;;;;;;5032661;28;20045;-79
2023/03/11 09:41:49;;;;;;;4.72;2.67;;;5.70;77.40;;;;;;5025684;28;20076;-79
2023/03/11 09:44:22;;;;;;;2.38;2.17;;;5.90;77.60;;;;;;5014850;28;20045;-80
2023/03/11 09:47:21;;;;;;;2.35;1.33;;;6.10;77.60;;;;;;5025556;28;20124;-79
2023/03/11 09:50:05;;;;;;;1.13;0.90;;;6.40;77.10;;;;;;5032755;28;20033;-79
2023/03/11 09:53:09;;;;;;;5.15;1.90;;;6.50;76.30;;;;;;5035547;28;20057;-77
2023/03/11 09:55:57;;;;;;;3.25;1.33;;;6.50;75.40;;;;;;5032901;28;22344;-79
2023/03/11 09:58:36;;;;;;;1.65;1.00;;;6.50;75.60;;;;;;5025501;28;20041;-79
2023/03/11 10:01:14;;;;;;;3.63;1.42;;;6.50;75.20;;;;;;5035109;28;20107;-79
2023/03/11 10:03:39;;;;;;;3.58;1.10;;;6.50;75.50;;;;;;5005788;28;21013;-80
2023/03/11 10:06:33;;;;;;;86.20;9.00;;;6.40;75.20;;;;;;5034335;28;20135;-80
2023/03/11 10:09:31;;;;;;;59.92;6.50;;;6.40;74.90;;;;;;5037334;28;20095;-79
2023/03/11 10:12:21;;;;;;;21.95;3.60;;;6.40;74.50;;;;;;4988684;28;20033;-82
2023/03/11 10:15:05;;;;;;;6.93;1.30;;;6.40;74.30;;;;;;5036064;28;20041;-82
2023/03/11 10:17:55;;;;;;;20.90;4.68;;;6.40;74.60;;;;;;5031957;28;20030;-81
2023/03/11 10:20:29;;;;;;;28.15;3.83;;;6.30;74.50;;;;;;5015440;28;20052;-80
2023/03/11 10:23:04;;;;;;;24.50;3.15;;;6.30;74.80;;;;;;5035084;28;20048;-81
2023/03/11 10:25:50;;;;;;;8.35;3.10;;;6.30;75.30;;;;;;5021702;28;20037;-81
2023/03/11 10:28:17;;;;;;;7.88;1.75;;;6.30;74.70;;;;;;5040769;28;20099;-79
2023/03/11 10:30:47;;;;;;;7.53;1.67;;;6.30;74.70;;;;;;5016977;28;20037;-80
2023/03/11 10:33:30;;;;;;;13.07;3.03;;;6.40;74.80;;;;;;5042014;28;20059;-79
2023/03/11 10:35:57;;;;;;;11.07;2.50;;;6.50;74.70;;;;;;5027052;28;20129;-80
2023/03/11 10:38:50;;;;;;;26.60;7.72;;;6.50;74.80;;;;;;5002450;28;20097;-77
2023/03/11 10:41:35;;;;;;;16.95;3.08;;;6.60;74.40;;;;;;5054558;28;20049;-80
2023/03/11 10:44:03;;;;;;;5.85;1.48;;;6.60;74.50;;;;;;5014871;28;20048;-80
2023/03/11 10:46:28;;;;;;;7.45;2.50;;;6.70;74.50;;;;;;5013369;28;20044;-81
2023/03/11 10:48:54;;;;;;;5.13;1.75;;;6.70;74.20;;;;;;5022932;28;20032;-80
2023/03/11 10:51:22;;;;;;;2.42;1.17;;;6.70;74.20;;;;;;5034766;28;20506;-80
2023/03/11 10:53:55;;;;;;;1.55;1.10;;;6.70;73.80;;;;;;5021925;28;20068;-79
2023/03/11 10:56:33;;;;;;;3.67;1.70;;;6.60;73.10;;;;;;5033954;28;20055;-80
2023/03/11 10:58:59;;;;;;;2.08;1.13;;;6.60;72.80;;;;;;5032351;28;20041;-80
2023/03/11 11:01:25;;;;;;;1.88;1.25;;;6.50;73.10;;;;;;5020148;28;20055;-77
2023/03/11 11:03:54;;;;;;;3.70;1.30;;;6.40;72.80;;;;;;5027318;28;20572;-78
2023/03/11 11:06:22;;;;;;;7.78;2.65;;;6.30;72.90;;;;;;5041490;28;20036;-77
2023/03/11 11:08:48;;;;;;;7.72;5.15;;;6.30;72.90;;;;;;5050254;28;20040;-78
2023/03/11 11:11:21;;;;;;;4.65;2.65;;;6.30;72.80;;;;;;5017259;28;20041;-80
2023/03/11 11:13:55;;;;;;;8.95;5.68;;;6.30;72.80;;;;;;5033685;28;20155;-79
2023/03/11 11:16:21;;;;;;;7.60;4.20;;;6.30;72.90;;;;;;5037983;28;20040;-80
2023/03/11 11:19:08;;;;;;;5.00;3.13;;;6.30;72.90;;;;;;5021026;28;20604;-79
2023/03/11 11:21:36;;;;;;;9.65;2.72;;;6.30;72.60;;;;;;4995587;28;20682;-78
2023/03/11 11:24:19;;;;;;;7.00;3.28;;;6.40;73.00;;;;;;4994125;28;20036;-79
2023/03/11 11:27:04;;;;;;;11.30;3.40;;;6.50;72.90;;;;;;5018204;28;20036;-79
2023/03/11 11:29:29;;;;;;;5.53;2.20;;;6.50;72.70;;;;;;5050598;28;20032;-79
2023/03/11 11:32:09;;;;;;;3.97;2.40;;;6.50;72.80;;;;;;5017295;28;20562;-78
2023/03/11 11:34:34;;;;;;;4.82;1.98;;;6.50;72.60;;;;;;5028750;28;20569;-77
2023/03/11 11:37:02;;;;;;;1.85;1.00;;;6.50;72.40;;;;;;5035531;28;20156;-80
2023/03/11 11:39:29;;;;;;;3.83;1.40;;;6.50;72.20;;;;;;5017966;28;20040;-77
2023/03/11 11:41:55;;;;;;;2.53;1.60;;;6.50;71.90;;;;;;5012955;28;20061;-80
2023/03/11 11:44:21;;;;;;;2.28;1.15;;;6.50;72.00;;;;;;5021221;28;20150;-79
2023/03/11 11:46:53;;;;;;;3.25;1.20;;;6.50;72.90;;;;;;5025852;28;20045;-78
2023/03/11 11:49:23;;;;;;;2.60;1.30;;;6.60;72.20;;;;;;5026156;28;20119;-80
2023/03/11 11:52:08;;;;;;;4.32;1.00;;;6.70;72.30;;;;;;5033255;28;20040;-79
2023/03/11 11:54:37;;;;;;;3.13;1.40;;;6.80;72.30;;;;;;5045540;28;20047;-79
2023/03/11 11:57:13;;;;;;;1.42;0.85;;;6.90;72.00;;;;;;5012379;28;20061;-79
2023/03/11 11:59:38;;;;;;;2.63;0.70;;;6.90;71.60;;;;;;5033692;28;20529;-79
2023/03/11 12:02:37;;;;;;;1.13;0.75;;;6.90;71.50;;;;;;5034030;28;20339;-80
2023/03/11 12:05:06;;;;;;;1.33;0.63;;;7.00;70.90;;;;;;5033759;28;20383;-76
2023/03/11 12:07:35;;;;;;;1.20;0.55;;;6.90;71.30;;;;;;5035746;28;20048;-80
2023/03/11 12:10:19;;;;;;;2.95;0.98;;;6.90;71.20;;;;;;5018003;28;20090;-80
2023/03/11 12:13:27;;;;;;;1.15;0.63;;;6.90;70.50;;;;;;5049079;28;20402;-79
2023/03/11 12:15:58;;;;;;;1.77;1.00;;;6.90;70.30;;;;;;5049213;28;20076;-80
2023/03/11 12:18:26;;;;;;;2.90;0.80;;;6.90;70.70;;;;;;5023416;28;20037;-78
2023/03/11 12:20:55;;;;;;;1.90;0.90;;;6.90;70.70;;;;;;5057070;28;20052;-79
2023/03/11 12:23:46;;;;;;;3.83;0.70;;;6.80;70.40;;;;;;5024007;28;20076;-79
2023/03/11 12:26:20;;;;;;;1.23;0.90;;;6.80;70.20;;;;;;5016682;28;20105;-79
2023/03/11 12:29:04;;;;;;;3.60;1.73;;;6.80;70.50;;;;;;5004813;28;20277;-78
2023/03/11 12:31:33;;;;;;;1.73;1.15;;;6.80;70.50;;;;;;5058968;28;20102;-80
2023/03/11 12:34:01;;;;;;;2.33;1.13;;;6.80;70.30;;;;;;5044287;28;20082;-78
2023/03/11 12:36:35;;;;;;;2.47;1.60;;;6.70;70.10;;;;;;5041897;28;20609;-79
2023/03/11 12:39:18;;;;;;;2.60;1.75;;;6.70;69.80;;;;;;5026671;28;20633;-79
2023/03/11 12:41:43;;;;;;;2.38;1.00;;;6.60;69.80;;;;;;5018055;28;20044;-79
2023/03/11 12:44:28;;;;;;;3.72;1.13;;;6.70;70.20;;;;;;5025251;28;20028;-79
2023/03/11 12:46:57;;;;;;;2.45;0.90;;;6.70;69.80;;;;;;5034165;28;20064;-79
2023/03/11 12:49:23;;;;;;;3.97;0.80;;;6.70;70.20;;;;;;5065856;28;20045;-79
2023/03/11 12:52:08;;;;;;;72.90;20.00;;;6.70;71.10;;;;;;5037299;28;20707;-77
2023/03/11 12:54:40;;;;;;;6.65;3.10;;;6.70;69.80;;;;;;5064778;28;20044;-79
2023/03/11 12:58:04;;;;;;;25.48;14.85;;;6.70;70.10;;;;;;5035659;28;20037;-78
2023/03/11 13:00:51;;;;;;;63.50;24.58;;;6.70;69.60;;;;;;4984520;28;20049;-80
2023/03/11 13:03:44;;;;;;;11.60;5.35;;;6.70;70.10;;;;;;4973113;28;20612;-79
2023/03/11 13:06:36;;;;;;;19.13;8.43;;;6.70;69.60;;;;;;4985830;28;20058;-79